createdAt,value
2019-02-27T00:00:15.740Z,2.90
2019-02-27T00:02:42.711Z,3.90
2019-02-27T00:05:09.720Z,2.75
2019-02-27T00:07:36.766Z,2.15
2019-02-27T00:10:06.178Z,3.10
2019-02-27T00:12:32.757Z,4.58
2019-02-27T00:15:02.208Z,2.83
2019-02-27T00:17:28.653Z,2.20
2019-02-27T00:19:55.602Z,2.17
2019-02-27T00:22:22.672Z,1.85
2019-02-27T00:24:49.689Z,2.00
2019-02-27T00:27:16.672Z,2.17
2019-02-27T00:29:43.671Z,2.10
2019-02-27T00:32:10.712Z,1.77
2019-02-27T00:34:37.792Z,1.65
2019-02-27T00:37:05.229Z,1.60
2019-02-27T00:39:32.210Z,3.37
2019-02-27T00:41:59.214Z,2.92
2019-02-27T00:44:26.242Z,2.42
2019-02-27T00:46:53.289Z,4.45
2019-02-27T00:49:20.263Z,2.75
2019-02-27T00:51:47.265Z,1.65
2019-02-27T00:54:14.300Z,1.45
2019-02-27T00:56:44.849Z,1.57
2019-02-27T00:59:10.031Z,1.20
2019-02-27T01:01:36.926Z,1.50
2019-02-27T01:04:04.073Z,2.20
2019-02-27T01:06:31.076Z,1.72
2019-02-27T01:08:58.005Z,1.17
2019-02-27T01:11:24.914Z,1.45
2019-02-27T01:13:51.963Z,1.20
2019-02-27T01:16:18.946Z,4.15
2019-02-27T01:18:45.969Z,1.50
2019-02-27T01:21:12.998Z,1.30
2019-02-27T01:23:43.704Z,1.62
2019-02-27T01:26:08.925Z,1.20
2019-02-27T01:28:35.829Z,1.45
2019-02-27T01:31:02.848Z,1.37
2019-02-27T01:33:29.834Z,2.77
2019-02-27T01:35:56.876Z,1.60
2019-02-27T01:38:23.836Z,1.40
2019-02-27T01:40:51.528Z,5.03
2019-02-27T01:43:19.165Z,1.37
2019-02-27T01:45:46.097Z,1.37
2019-02-27T01:48:12.988Z,3.12
2019-02-27T01:50:39.949Z,1.50
2019-02-27T01:53:08.177Z,3.25
2019-02-27T01:55:35.217Z,2.37
2019-02-27T01:58:02.152Z,3.20
2019-02-27T02:00:29.197Z,1.10
2019-02-27T02:02:56.233Z,1.35
2019-02-27T02:05:27.203Z,1.75
2019-02-27T02:07:53.888Z,1.40
2019-02-27T02:10:20.944Z,2.45
2019-02-27T02:12:51.534Z,1.55
2019-02-27T02:15:52.130Z,1.90
2019-02-27T02:18:45.786Z,1.40
2019-02-27T02:21:56.896Z,1.70
2019-02-27T02:25:01.789Z,2.05
2019-02-27T02:28:25.981Z,1.50
2019-02-27T02:31:19.488Z,1.52
2019-02-27T02:34:10.994Z,1.52
2019-02-27T02:37:15.755Z,1.55
2019-02-27T02:40:33.461Z,1.90
2019-02-27T02:43:57.240Z,1.50
2019-02-27T02:47:05.871Z,1.42
2019-02-27T02:50:04.281Z,2.02
2019-02-27T02:52:54.966Z,1.55
2019-02-27T02:56:23.949Z,1.25
2019-02-27T02:59:45.075Z,2.90
2019-02-27T03:03:02.028Z,1.20
2019-02-27T03:06:00.193Z,1.55
2019-02-27T03:08:54.997Z,1.95
2019-02-27T03:11:54.178Z,1.45
2019-02-27T03:14:54.529Z,1.45
2019-02-27T03:17:43.257Z,2.08
2019-02-27T03:20:36.189Z,2.22
2019-02-27T03:23:34.810Z,1.90
2019-02-27T03:26:16.910Z,1.72
2019-02-27T03:29:15.804Z,3.00
2019-02-27T03:31:57.823Z,1.47
2019-02-27T03:34:57.112Z,2.50
2019-02-27T03:38:05.933Z,1.90
2019-02-27T03:41:05.137Z,1.60
2019-02-27T03:43:55.862Z,1.70
2019-02-27T03:46:47.774Z,2.12
2019-02-27T03:49:39.511Z,4.42
2019-02-27T03:52:36.556Z,1.30
2019-02-27T03:55:31.903Z,1.25
2019-02-27T03:58:30.030Z,1.65
2019-02-27T04:01:31.431Z,1.40
2019-02-27T04:04:35.337Z,2.37
2019-02-27T04:07:24.425Z,4.42
2019-02-27T04:09:54.821Z,2.85
2019-02-27T04:12:20.617Z,9.23
2019-02-27T04:14:47.641Z,1.70
2019-02-27T04:17:14.671Z,1.50
2019-02-27T04:19:41.658Z,2.17
2019-02-27T04:22:08.559Z,2.35
2019-02-27T04:24:35.433Z,1.70
2019-02-27T04:27:02.384Z,1.45
2019-02-27T04:29:29.304Z,2.08
2019-02-27T04:31:56.239Z,3.08
2019-02-27T04:34:23.097Z,2.15
2019-02-27T04:36:50.054Z,2.20
2019-02-27T04:39:16.923Z,4.42
2019-02-27T04:41:43.951Z,2.00
2019-02-27T04:44:10.916Z,6.00
2019-02-27T04:46:37.936Z,2.52
2019-02-27T04:49:05.187Z,4.95
2019-02-27T04:51:32.264Z,1.50
2019-02-27T04:53:59.252Z,2.08
2019-02-27T04:56:26.228Z,2.87
2019-02-27T04:58:53.220Z,2.60
2019-02-27T05:01:20.104Z,3.60
2019-02-27T05:03:47.059Z,3.27
2019-02-27T05:06:14.552Z,2.60
2019-02-27T05:08:42.119Z,2.70
2019-02-27T05:11:09.164Z,2.65
2019-02-27T05:13:36.049Z,4.80
2019-02-27T05:16:03.036Z,2.85
2019-02-27T05:18:30.086Z,2.35
2019-02-27T05:20:57.192Z,3.37
2019-02-27T05:23:24.200Z,5.83
2019-02-27T05:25:51.186Z,3.50
2019-02-27T05:28:18.175Z,3.15
2019-02-27T05:30:45.841Z,2.58
2019-02-27T05:33:12.939Z,3.22
2019-02-27T05:35:39.909Z,14.35
2019-02-27T05:38:06.850Z,6.03
2019-02-27T05:40:33.853Z,5.12
2019-02-27T05:43:00.756Z,7.58
2019-02-27T05:45:30.392Z,3.62
2019-02-27T05:47:56.491Z,4.53
2019-02-27T05:50:23.448Z,3.20
2019-02-27T05:52:50.359Z,3.75
2019-02-27T05:55:17.337Z,5.72
2019-02-27T05:57:44.249Z,5.47
2019-02-27T06:00:13.477Z,3.17
2019-02-27T06:02:41.916Z,4.17
2019-02-27T06:05:09.598Z,2.72
2019-02-27T06:07:36.588Z,4.65
2019-02-27T06:10:04.405Z,6.85
2019-02-27T06:12:31.497Z,7.90
2019-02-27T06:14:58.412Z,5.75
2019-02-27T06:17:25.408Z,6.45
2019-02-27T06:19:52.393Z,4.78
2019-02-27T06:22:19.335Z,5.85
2019-02-27T06:24:46.390Z,3.75
2019-02-27T06:27:13.585Z,10.75
2019-02-27T06:29:40.576Z,3.60
2019-02-27T06:32:11.902Z,4.60
2019-02-27T06:34:36.521Z,5.08
2019-02-27T06:37:03.509Z,7.47
2019-02-27T06:39:34.130Z,5.25
2019-02-27T06:41:59.376Z,5.72
2019-02-27T06:44:26.409Z,8.90
2019-02-27T06:46:53.741Z,3.45
2019-02-27T06:49:21.763Z,6.65
2019-02-27T06:51:48.669Z,6.53
2019-02-27T06:54:18.170Z,3.17
2019-02-27T06:56:44.501Z,12.47
2019-02-27T06:59:11.521Z,9.20
2019-02-27T07:01:38.497Z,8.53
2019-02-27T07:04:05.526Z,7.95
2019-02-27T07:06:32.570Z,9.05
2019-02-27T07:08:59.548Z,7.15
2019-02-27T07:11:26.518Z,20.05
2019-02-27T07:13:53.400Z,9.33
2019-02-27T07:16:22.848Z,7.12
2019-02-27T07:18:49.471Z,12.07
2019-02-27T07:21:16.544Z,7.22
2019-02-27T07:23:43.573Z,9.93
2019-02-27T07:26:10.550Z,8.03
2019-02-27T07:28:37.469Z,5.67
2019-02-27T07:31:04.448Z,9.38
2019-02-27T07:33:31.352Z,10.13
2019-02-27T07:35:58.268Z,8.10
2019-02-27T07:38:25.619Z,7.10
2019-02-27T07:40:52.572Z,6.35
2019-02-27T07:43:19.532Z,7.65
2019-02-27T07:45:46.514Z,6.45
2019-02-27T07:48:13.527Z,5.35
2019-02-27T07:50:40.609Z,7.28
2019-02-27T07:53:07.569Z,8.43
2019-02-27T07:55:34.479Z,9.90
2019-02-27T07:58:01.512Z,7.72
2019-02-27T08:00:28.478Z,8.38
2019-02-27T08:02:55.507Z,7.80
2019-02-27T08:05:22.587Z,8.20
2019-02-27T08:07:49.954Z,6.72
2019-02-27T08:10:19.926Z,6.50
2019-02-27T08:12:46.975Z,7.22
2019-02-27T08:15:15.118Z,6.75
2019-02-27T08:17:42.112Z,10.18
2019-02-27T08:20:09.345Z,9.88
2019-02-27T08:22:38.068Z,8.05
2019-02-27T08:25:05.913Z,7.47
2019-02-27T08:27:32.864Z,10.72
2019-02-27T08:29:59.927Z,5.53
2019-02-27T08:32:27.180Z,8.83
2019-02-27T08:34:54.307Z,8.83
2019-02-27T08:37:21.477Z,8.78
2019-02-27T08:39:48.632Z,5.92
2019-02-27T08:42:15.825Z,10.88
2019-02-27T08:44:45.809Z,7.33
2019-02-27T08:47:13.187Z,10.78
2019-02-27T08:49:40.191Z,13.72
2019-02-27T08:52:08.525Z,7.65
2019-02-27T08:54:35.680Z,10.35
2019-02-27T08:57:02.700Z,12.15
2019-02-27T08:59:29.579Z,8.70
2019-02-27T09:01:56.725Z,7.37
2019-02-27T09:04:23.784Z,5.58
2019-02-27T09:06:51.782Z,10.63
2019-02-27T09:09:18.724Z,8.00
2019-02-27T09:11:45.750Z,6.10
2019-02-27T09:14:12.735Z,7.93
2019-02-27T09:16:39.754Z,8.73
2019-02-27T09:19:09.421Z,8.38
2019-02-27T09:21:35.507Z,10.60
2019-02-27T09:24:02.473Z,7.83
2019-02-27T09:26:29.390Z,9.95
2019-02-27T09:28:56.757Z,6.93
2019-02-27T09:31:23.774Z,7.60
2019-02-27T09:33:52.936Z,11.73
2019-02-27T09:36:19.564Z,6.80
2019-02-27T09:38:46.433Z,11.97
2019-02-27T09:41:13.790Z,12.20
2019-02-27T09:43:40.814Z,7.93
2019-02-27T09:46:07.781Z,12.83
2019-02-27T09:48:34.641Z,13.03
2019-02-27T09:51:01.656Z,9.60
2019-02-27T09:53:28.590Z,15.47
2019-02-27T09:55:55.590Z,11.10
2019-02-27T09:58:22.841Z,10.70
2019-02-27T10:00:59.187Z,10.93
2019-02-27T10:03:24.201Z,13.60
2019-02-27T10:05:51.209Z,12.40
2019-02-27T10:08:18.229Z,12.63
2019-02-27T10:10:46.023Z,10.77
2019-02-27T10:13:13.144Z,12.00
2019-02-27T10:15:40.084Z,13.03
2019-02-27T10:18:07.041Z,11.50
2019-02-27T10:20:36.965Z,10.77
2019-02-27T10:23:02.840Z,11.37
2019-02-27T10:25:30.920Z,9.33
2019-02-27T10:28:03.416Z,18.50
2019-02-27T10:30:26.805Z,9.70
2019-02-27T10:32:53.809Z,9.40
2019-02-27T10:35:20.728Z,10.67
2019-02-27T10:37:50.425Z,9.33
2019-02-27T10:40:17.217Z,9.40
2019-02-27T10:42:44.157Z,11.90
2019-02-27T10:45:11.555Z,10.90
2019-02-27T10:47:39.931Z,11.70
2019-02-27T10:50:07.411Z,10.80
2019-02-27T10:52:34.428Z,16.83
2019-02-27T10:55:01.292Z,12.43
2019-02-27T10:57:31.442Z,12.87
2019-02-27T10:59:59.197Z,12.00
2019-02-27T11:02:26.273Z,16.83
2019-02-27T11:04:53.174Z,13.90
2019-02-27T11:07:20.093Z,10.83
2019-02-27T11:09:47.132Z,13.03
2019-02-27T11:12:14.064Z,12.80
2019-02-27T11:14:41.007Z,14.37
2019-02-27T11:17:08.022Z,14.27
2019-02-27T11:19:36.844Z,12.23
2019-02-27T11:22:04.786Z,14.30
2019-02-27T11:24:31.706Z,15.30
2019-02-27T11:26:58.676Z,17.60
2019-02-27T11:29:25.613Z,15.73
2019-02-27T11:31:52.635Z,13.57
2019-02-27T11:34:19.682Z,14.57
2019-02-27T11:36:46.693Z,15.63
2019-02-27T11:39:13.629Z,10.60
2019-02-27T11:41:40.574Z,15.00
2019-02-27T11:44:07.530Z,13.10
2019-02-27T11:46:35.119Z,15.90
2019-02-27T11:49:03.459Z,15.17
2019-02-27T11:51:30.377Z,17.37
2019-02-27T11:53:57.317Z,13.03
2019-02-27T11:56:24.498Z,16.40
2019-02-27T11:58:51.465Z,13.67
2019-02-27T12:01:21.825Z,16.30
2019-02-27T12:03:47.220Z,12.17
2019-02-27T12:06:14.274Z,14.10
2019-02-27T12:08:41.249Z,18.10
2019-02-27T12:11:09.691Z,14.70
2019-02-27T12:13:36.998Z,15.50
2019-02-27T12:16:04.890Z,15.37
2019-02-27T12:18:32.203Z,13.60
2019-02-27T12:21:00.805Z,31.97
2019-02-27T12:23:27.740Z,12.70
2019-02-27T12:25:54.703Z,14.17
2019-02-27T12:28:22.352Z,15.23
2019-02-27T12:30:49.243Z,13.17
2019-02-27T12:33:16.199Z,13.27
2019-02-27T12:35:44.947Z,14.77
2019-02-27T12:38:12.066Z,15.80
2019-02-27T12:40:38.945Z,15.53
2019-02-27T12:43:05.904Z,16.80
2019-02-27T12:45:32.831Z,16.17
2019-02-27T12:47:59.860Z,14.30
2019-02-27T12:50:30.805Z,20.10
2019-02-27T12:52:55.963Z,14.90
2019-02-27T12:55:23.264Z,17.10
2019-02-27T12:57:52.337Z,15.23
2019-02-27T13:00:22.150Z,22.33
2019-02-27T13:02:49.100Z,15.40
2019-02-27T13:05:16.920Z,13.07
2019-02-27T13:07:44.714Z,16.47
2019-02-27T13:10:14.747Z,14.23
2019-02-27T13:12:41.703Z,15.83
2019-02-27T13:15:09.880Z,15.43
2019-02-27T13:17:36.743Z,15.93
2019-02-27T13:20:06.346Z,15.80
2019-02-27T13:22:33.405Z,12.97
2019-02-27T13:25:00.398Z,14.50
2019-02-27T13:27:27.398Z,14.20
2019-02-27T13:29:56.601Z,13.33
2019-02-27T13:32:26.410Z,16.50
2019-02-27T13:34:52.016Z,17.03
2019-02-27T13:37:19.041Z,18.70
2019-02-27T13:39:45.937Z,16.30
2019-02-27T13:42:13.207Z,13.53
2019-02-27T13:44:40.154Z,14.53
2019-02-27T13:47:07.085Z,15.97
2019-02-27T13:49:34.005Z,14.07
2019-02-27T13:52:00.976Z,18.27
2019-02-27T13:54:27.892Z,15.23
2019-02-27T13:56:55.013Z,16.83
2019-02-27T13:59:22.028Z,17.03
2019-02-27T14:01:50.813Z,13.20
2019-02-27T14:04:21.876Z,15.63
2019-02-27T14:06:47.493Z,14.47
2019-02-27T14:09:14.792Z,22.23
2019-02-27T14:11:41.704Z,14.10
2019-02-27T14:14:08.700Z,13.40
2019-02-27T14:16:36.316Z,12.60
2019-02-27T14:19:03.438Z,14.57
2019-02-27T14:21:35.296Z,17.57
2019-02-27T14:23:59.204Z,15.53
2019-02-27T14:26:26.237Z,13.33
2019-02-27T14:28:55.123Z,13.00
2019-02-27T14:31:22.106Z,15.13
2019-02-27T14:33:51.178Z,13.87
2019-02-27T14:36:18.072Z,17.03
2019-02-27T14:38:44.940Z,13.43
2019-02-27T14:41:14.532Z,16.77
2019-02-27T14:43:40.752Z,12.00
2019-02-27T14:46:07.762Z,13.47
2019-02-27T14:48:34.707Z,12.80
2019-02-27T14:51:01.757Z,18.30
2019-02-27T14:53:28.722Z,13.03
2019-02-27T14:55:55.748Z,14.50
2019-02-27T14:58:24.274Z,15.80
2019-02-27T15:00:51.680Z,12.63
2019-02-27T15:03:18.666Z,13.13
2019-02-27T15:05:45.646Z,14.10
2019-02-27T15:08:12.652Z,16.17
2019-02-27T15:10:41.098Z,23.10
2019-02-27T15:13:08.255Z,19.30
2019-02-27T15:15:35.206Z,13.50
2019-02-27T15:18:02.232Z,13.67
2019-02-27T15:20:29.142Z,14.50
2019-02-27T15:22:56.191Z,16.87
2019-02-27T15:25:23.213Z,13.17
2019-02-27T15:27:50.171Z,15.67
2019-02-27T15:30:19.177Z,15.40
2019-02-27T15:32:46.467Z,14.47
2019-02-27T15:35:13.382Z,12.80
2019-02-27T15:37:40.840Z,16.67
2019-02-27T15:40:08.913Z,14.10
2019-02-27T15:42:35.834Z,16.00
2019-02-27T15:45:09.165Z,13.50
2019-02-27T15:47:33.714Z,11.70
2019-02-27T15:50:02.605Z,14.00
2019-02-27T15:52:29.726Z,13.77
2019-02-27T15:55:00.420Z,14.07
2019-02-27T15:57:27.347Z,12.60
2019-02-27T15:59:56.696Z,13.90
2019-02-27T16:02:23.673Z,20.80
2019-02-27T16:04:55.473Z,14.93
2019-02-27T16:07:21.860Z,15.40
2019-02-27T16:09:51.300Z,11.27
2019-02-27T16:12:19.913Z,13.73
2019-02-27T16:14:55.768Z,16.83
2019-02-27T16:17:25.970Z,12.33
2019-02-27T16:19:54.129Z,15.20
2019-02-27T16:22:21.362Z,12.67
2019-02-27T16:24:48.776Z,16.67
2019-02-27T16:27:16.061Z,15.47
2019-02-27T16:29:42.978Z,21.70
2019-02-27T16:32:13.028Z,12.57
2019-02-27T16:34:39.643Z,15.17
2019-02-27T16:37:06.711Z,19.93
2019-02-27T16:39:33.952Z,17.77
2019-02-27T16:42:05.152Z,15.03
2019-02-27T16:44:31.743Z,13.90
2019-02-27T16:46:59.329Z,17.37
2019-02-27T16:49:26.497Z,17.57
2019-02-27T16:51:53.628Z,16.10
2019-02-27T16:54:20.519Z,17.27
2019-02-27T16:56:50.008Z,25.07
2019-02-27T16:59:16.511Z,27.07
2019-02-27T17:01:43.558Z,24.27
2019-02-27T17:04:11.406Z,26.33
2019-02-27T17:06:38.628Z,29.30
2019-02-27T17:09:07.195Z,24.20
2019-02-27T17:11:35.566Z,19.70
2019-02-27T17:14:02.861Z,15.60
2019-02-27T17:16:44.374Z,15.60
2019-02-27T17:19:13.686Z,17.47
2019-02-27T17:21:48.999Z,20.23
2019-02-27T17:24:28.374Z,16.03
2019-02-27T17:26:58.439Z,17.70
2019-02-27T17:29:41.253Z,22.37
2019-02-27T17:38:58.506Z,16.80
2019-02-27T17:41:38.353Z,18.57
2019-02-27T17:44:17.149Z,16.83
2019-02-27T17:47:08.740Z,19.70
2019-02-27T17:49:40.286Z,20.63
2019-02-27T17:52:22.954Z,45.20
2019-02-27T17:54:51.356Z,23.20
2019-02-27T17:57:34.287Z,15.20
2019-02-27T18:00:12.931Z,15.60
2019-02-27T18:02:43.491Z,24.60
2019-02-27T18:05:10.987Z,26.20
2019-02-27T18:07:40.318Z,26.30
2019-02-27T18:10:11.291Z,23.97
2019-02-27T18:13:13.471Z,20.47
2019-02-27T18:15:32.519Z,24.10
2019-02-27T18:17:59.650Z,20.50
2019-02-27T18:20:31.896Z,19.67
2019-02-27T18:23:01.075Z,24.13
2019-02-27T18:25:28.084Z,20.70
2019-02-27T18:27:58.703Z,52.43
2019-02-27T18:30:24.215Z,13.23
2019-02-27T18:32:51.227Z,12.00
2019-02-27T18:35:18.612Z,14.13
2019-02-27T18:37:45.767Z,9.70
2019-02-27T18:40:12.982Z,10.40
2019-02-27T18:42:40.010Z,8.50
2019-02-27T18:45:08.405Z,11.90
2019-02-27T18:47:35.896Z,19.07
2019-02-27T18:50:03.521Z,8.57
2019-02-27T18:52:30.642Z,11.53
2019-02-27T18:54:57.748Z,8.17
2019-02-27T18:57:24.673Z,21.40
2019-02-27T18:59:51.696Z,19.53
2019-02-27T19:02:20.640Z,9.80
2019-02-27T19:04:47.557Z,12.83
2019-02-27T19:07:17.326Z,21.23
2019-02-27T19:09:44.205Z,20.83
2019-02-27T19:12:11.105Z,17.50
2019-02-27T19:14:39.559Z,17.47
2019-02-27T19:17:06.553Z,21.07
2019-02-27T19:19:33.680Z,18.10
2019-02-27T19:22:00.823Z,20.77
2019-02-27T19:24:27.900Z,14.40
2019-02-27T19:26:54.910Z,18.70
2019-02-27T19:29:21.889Z,14.28
2019-02-27T19:31:51.633Z,22.63
2019-02-27T19:34:17.805Z,24.00
2019-02-27T19:36:45.072Z,20.90
2019-02-27T19:39:12.327Z,19.75
2019-02-27T19:41:39.787Z,15.83
2019-02-27T19:44:06.870Z,15.77
2019-02-27T19:46:33.933Z,21.07
2019-02-27T19:49:03.523Z,20.90
2019-02-27T19:51:29.713Z,22.40
2019-02-27T19:53:56.797Z,12.35
2019-02-27T19:56:23.998Z,15.37
2019-02-27T19:58:51.978Z,22.40
2019-02-27T20:01:24.804Z,12.35
2019-02-27T20:03:51.921Z,14.23
2019-02-27T20:06:18.901Z,16.97
2019-02-27T20:08:46.196Z,13.93
2019-02-27T20:11:13.413Z,13.48
2019-02-27T20:13:40.462Z,11.55
2019-02-27T20:16:07.531Z,20.75
2019-02-27T20:18:34.806Z,10.30
2019-02-27T20:21:02.026Z,20.10
2019-02-27T20:23:29.241Z,20.95
2019-02-27T20:25:56.636Z,14.00
2019-02-27T20:28:23.678Z,16.45
2019-02-27T20:30:50.803Z,15.88
2019-02-27T20:33:17.896Z,18.85
2019-02-27T20:35:45.027Z,14.35
2019-02-27T20:38:15.358Z,15.55
2019-02-27T20:40:42.351Z,19.62
2019-02-27T20:43:10.237Z,16.62
2019-02-27T20:45:37.241Z,13.65
2019-02-27T20:48:04.269Z,21.30
2019-02-27T20:50:35.181Z,12.65
2019-02-27T20:53:02.853Z,17.37
2019-02-27T20:55:30.957Z,14.47
2019-02-27T20:57:58.658Z,14.30
2019-02-27T21:00:26.003Z,12.98
2019-02-27T21:02:54.058Z,15.03
2019-02-27T21:05:21.750Z,11.90
2019-02-27T21:07:49.432Z,15.95
2019-02-27T21:10:20.994Z,42.90
2019-02-27T21:12:53.900Z,15.68
2019-02-27T21:15:15.440Z,10.88
2019-02-27T21:17:42.381Z,9.60
2019-02-27T21:20:11.952Z,11.12
2019-02-27T21:22:38.793Z,11.83
2019-02-27T21:25:05.994Z,10.70
2019-02-27T21:27:34.005Z,10.32
2019-02-27T21:30:01.024Z,14.20
2019-02-27T21:32:27.908Z,14.33
2019-02-27T21:34:55.151Z,11.00
2019-02-27T21:37:23.022Z,8.73
2019-02-27T21:39:50.053Z,51.70
2019-02-27T21:42:19.382Z,23.02
2019-02-27T21:44:45.866Z,13.15
2019-02-27T21:47:13.317Z,9.88
2019-02-27T21:49:40.276Z,7.58
2019-02-27T21:52:09.238Z,10.40
2019-02-27T21:54:39.250Z,9.90
2019-02-27T21:57:04.844Z,8.70
2019-02-27T21:59:31.727Z,10.72
2019-02-27T22:01:58.710Z,11.73
2019-02-27T22:04:25.752Z,9.48
2019-02-27T22:06:52.635Z,11.03
2019-02-27T22:09:19.511Z,12.70
2019-02-27T22:11:46.437Z,8.55
2019-02-27T22:14:16.683Z,9.43
2019-02-27T22:16:42.276Z,9.43
2019-02-27T22:19:09.213Z,9.05
2019-02-27T22:21:36.209Z,10.28
2019-02-27T22:24:03.334Z,21.02
2019-02-27T22:26:30.389Z,12.60
2019-02-27T22:28:57.472Z,9.58
2019-02-27T22:31:25.533Z,7.85
2019-02-27T22:33:53.160Z,9.68
2019-02-27T22:36:21.268Z,7.08
2019-02-27T22:38:48.236Z,9.78
2019-02-27T22:41:17.107Z,9.58
2019-02-27T22:43:43.989Z,6.42
2019-02-27T22:46:13.657Z,8.65
2019-02-27T22:48:39.839Z,6.80
2019-02-27T22:51:06.844Z,9.03
2019-02-27T22:53:33.879Z,6.28
2019-02-27T22:56:02.605Z,7.40
2019-02-27T22:58:31.341Z,6.97
2019-02-27T23:01:07.964Z,5.95
2019-02-27T23:03:39.114Z,4.67
2019-02-27T23:06:09.300Z,4.50
2019-02-27T23:08:37.849Z,3.60
2019-02-27T23:11:05.238Z,3.67
2019-02-27T23:13:32.312Z,3.20
2019-02-27T23:15:59.309Z,3.52
2019-02-27T23:18:26.204Z,3.87
2019-02-27T23:20:55.436Z,17.55
2019-02-27T23:23:21.886Z,8.05
2019-02-27T23:25:49.899Z,3.42
2019-02-27T23:28:16.862Z,3.95
2019-02-27T23:30:46.961Z,8.73
2019-02-27T23:33:12.652Z,8.48
2019-02-27T23:35:39.719Z,4.75
2019-02-27T23:38:08.563Z,5.65
2019-02-27T23:40:37.266Z,3.35
2019-02-27T23:43:04.286Z,4.25
2019-02-27T23:45:31.200Z,4.35
2019-02-27T23:48:02.201Z,5.03
2019-02-27T23:50:28.276Z,5.15
2019-02-27T23:52:55.525Z,2.67
2019-02-27T23:55:23.088Z,3.95
2019-02-27T23:57:50.052Z,3.05
